createdAt,value
2023-02-15T00:01:09.199Z,9.50
2023-02-15T00:06:12.123Z,13.83
2023-02-15T00:11:17.815Z,10.13
2023-02-15T00:16:20.694Z,7.50
2023-02-15T00:21:23.621Z,5.80
2023-02-15T00:26:26.764Z,8.73
2023-02-15T05:34:58.633Z,14.87
2023-02-15T05:40:01.578Z,14.90
2023-02-15T05:45:04.837Z,14.77
2023-02-15T05:50:08.421Z,15.00
2023-02-15T05:55:11.304Z,13.57
2023-02-15T06:00:15.134Z,16.37
2023-02-15T06:05:18.074Z,15.17
2023-02-15T06:10:20.942Z,11.63
2023-02-15T06:15:23.825Z,15.67
2023-02-15T06:20:26.807Z,14.00
2023-02-15T06:25:29.933Z,14.60
2023-02-15T06:30:33.205Z,15.10
2023-02-15T06:35:36.132Z,16.73
2023-02-15T06:40:38.974Z,15.77
2023-02-15T06:45:43.347Z,10.33
2023-02-15T06:50:46.233Z,13.80
2023-02-15T06:55:49.121Z,8.50
2023-02-15T07:00:53.538Z,17.80
2023-02-15T07:06:01.422Z,15.47
2023-02-15T07:11:23.524Z,13.23
2023-02-15T07:16:26.545Z,11.80
2023-02-15T07:21:29.573Z,12.17
2023-02-15T07:26:35.599Z,17.20
2023-02-15T07:31:38.467Z,11.67
2023-02-15T07:36:41.408Z,12.67
2023-02-15T07:41:44.236Z,19.47
2023-02-15T07:46:47.092Z,19.93
2023-02-15T07:51:49.960Z,15.33
2023-02-15T07:56:52.803Z,11.80
2023-02-15T08:01:57.450Z,11.90
2023-02-15T08:07:00.497Z,12.73
2023-02-15T08:12:04.011Z,19.20
2023-02-15T08:17:07.303Z,14.57
2023-02-15T08:22:14.330Z,15.40
2023-02-15T08:27:17.134Z,11.93
2023-02-15T08:32:20.086Z,20.17
2023-02-15T08:37:22.976Z,14.33
2023-02-15T08:42:25.801Z,15.80
2023-02-15T08:47:29.147Z,18.10
2023-02-15T08:52:32.024Z,14.83
2023-02-15T08:57:34.845Z,16.33
2023-02-15T09:02:38.108Z,13.87
2023-02-15T09:07:41.108Z,14.80
2023-02-15T09:12:44.040Z,13.03
2023-02-15T09:17:46.867Z,17.33
2023-02-15T09:22:49.726Z,18.57
2023-02-15T09:27:52.562Z,19.60
2023-02-15T09:32:55.527Z,19.90
2023-02-15T09:37:58.388Z,18.70
2023-02-15T09:43:11.212Z,17.03
2023-02-15T09:48:39.522Z,19.53
2023-02-15T09:53:45.296Z,11.97
2023-02-15T09:59:03.731Z,16.77
2023-02-15T10:04:19.574Z,17.33
2023-02-15T10:10:07.661Z,18.97
2023-02-15T10:15:17.088Z,13.63
2023-02-15T10:20:48.872Z,25.30
2023-02-15T10:26:18.845Z,15.07
2023-02-15T10:31:26.308Z,19.93
2023-02-15T10:36:38.630Z,12.80
2023-02-15T10:41:54.501Z,20.47
2023-02-15T10:47:25.980Z,17.63
2023-02-15T10:53:01.078Z,13.20
2023-02-15T10:58:22.070Z,13.13
2023-02-15T11:03:28.957Z,13.17
2023-02-15T11:08:37.122Z,11.23
2023-02-15T11:13:50.183Z,15.70
2023-02-15T11:19:04.370Z,10.33
2023-02-15T11:24:13.099Z,15.53
2023-02-15T11:29:27.731Z,10.27
2023-02-15T11:34:40.986Z,13.63
2023-02-15T11:39:44.374Z,12.33
2023-02-15T11:45:19.600Z,10.47
2023-02-15T11:50:25.778Z,12.67
2023-02-15T11:55:30.163Z,13.63
2023-02-15T12:00:49.266Z,15.97
2023-02-15T12:05:57.766Z,16.07
2023-02-15T12:11:17.342Z,10.43
2023-02-15T12:16:20.230Z,12.13
2023-02-15T12:21:35.412Z,28.30
2023-02-15T12:26:38.874Z,17.47
2023-02-15T12:31:46.876Z,17.30
2023-02-15T12:36:58.901Z,10.83
2023-02-15T12:42:15.590Z,9.97
2023-02-15T12:47:19.051Z,12.70
2023-02-15T12:52:21.791Z,13.23
2023-02-15T12:57:34.065Z,19.90
2023-02-15T13:02:37.461Z,10.50
2023-02-15T13:07:40.388Z,19.67
2023-02-15T13:12:48.720Z,10.80
2023-02-15T13:17:51.613Z,10.17
2023-02-15T13:23:03.042Z,13.50
2023-02-15T13:28:06.492Z,13.23
2023-02-15T13:33:49.724Z,13.13
2023-02-15T13:39:34.171Z,12.23
2023-02-15T13:45:23.243Z,11.33
2023-02-15T13:50:53.534Z,11.63
2023-02-15T13:56:02.396Z,14.67
2023-02-15T14:01:33.807Z,13.60
2023-02-15T14:06:57.750Z,12.93
2023-02-15T14:12:19.601Z,13.67
2023-02-15T14:17:41.354Z,14.43
2023-02-15T14:22:47.646Z,13.53
2023-02-15T14:28:11.204Z,18.87
2023-02-15T14:33:40.861Z,10.17
2023-02-15T14:39:07.338Z,12.73
2023-02-15T14:44:22.725Z,13.53
2023-02-15T14:49:48.776Z,12.90
2023-02-15T14:54:55.056Z,14.37
2023-02-15T15:00:00.538Z,10.07
2023-02-15T15:05:07.634Z,12.87
2023-02-15T15:10:20.838Z,9.20
2023-02-15T15:15:30.753Z,9.67
2023-02-15T15:20:51.837Z,12.83
2023-02-15T15:26:06.862Z,11.40
2023-02-15T15:31:31.849Z,19.07
2023-02-15T15:36:58.464Z,15.70
2023-02-15T15:42:32.628Z,16.67
2023-02-15T15:48:10.977Z,14.20
2023-02-15T15:53:25.741Z,14.07
2023-02-15T15:58:32.359Z,17.87
2023-02-15T16:03:35.220Z,17.20
2023-02-15T16:08:39.998Z,20.30
2023-02-15T16:13:43.698Z,17.67
2023-02-15T16:18:47.925Z,13.83
2023-02-15T16:24:09.363Z,16.17
2023-02-15T16:29:17.653Z,29.73
2023-02-15T16:34:20.530Z,23.00
2023-02-15T16:39:23.561Z,24.23
2023-02-15T16:44:26.612Z,19.30
2023-02-15T16:49:30.526Z,29.63
2023-02-15T16:54:33.718Z,19.30
2023-02-15T16:59:44.464Z,26.07
2023-02-15T17:05:08.126Z,28.33
2023-02-15T17:10:31.453Z,24.43
2023-02-15T17:15:36.659Z,28.13
2023-02-15T17:20:42.791Z,22.97
2023-02-15T17:25:45.717Z,34.40
2023-02-15T17:30:49.199Z,27.33
2023-02-15T17:36:06.570Z,31.90
2023-02-15T17:41:09.956Z,30.60
2023-02-15T17:46:13.753Z,26.07
2023-02-15T17:51:17.362Z,30.50
2023-02-15T17:56:20.358Z,28.07
2023-02-15T18:01:42.341Z,27.03
2023-02-15T18:07:03.852Z,22.97
2023-02-15T18:12:33.975Z,25.83
2023-02-15T18:17:40.497Z,24.43
2023-02-15T18:22:43.438Z,20.73
2023-02-15T18:27:46.658Z,27.53
2023-02-15T18:32:52.612Z,20.97
2023-02-15T18:37:55.604Z,26.03
2023-02-15T18:42:58.603Z,21.57
2023-02-15T18:48:01.548Z,28.17
2023-02-15T18:53:06.637Z,27.60
2023-02-15T18:58:18.360Z,28.03
2023-02-15T19:03:21.185Z,23.10
2023-02-15T19:08:24.786Z,22.57
2023-02-15T19:13:27.750Z,32.23
2023-02-15T19:18:30.782Z,18.17
2023-02-15T19:23:33.857Z,24.03
2023-02-15T19:28:36.927Z,21.27
2023-02-15T19:33:41.155Z,19.93
2023-02-15T19:38:46.587Z,22.27
2023-02-15T19:43:55.386Z,21.70
2023-02-15T19:48:59.301Z,15.90
2023-02-15T19:54:02.303Z,22.70
2023-02-15T19:59:05.717Z,21.40
2023-02-15T20:04:08.958Z,20.67
2023-02-15T20:09:31.879Z,25.50
2023-02-15T20:14:35.126Z,29.33
2023-02-15T20:19:39.693Z,30.17
2023-02-15T20:24:42.778Z,20.03
2023-02-15T20:29:45.862Z,20.73
2023-02-15T20:34:48.919Z,23.17
2023-02-15T20:39:52.176Z,20.00
2023-02-15T20:44:55.369Z,22.50
2023-02-15T20:49:59.200Z,16.73
2023-02-15T20:55:02.328Z,23.87
2023-02-15T21:00:06.455Z,22.03
2023-02-15T21:05:24.771Z,21.70
2023-02-15T21:10:29.924Z,22.43
2023-02-15T21:15:39.748Z,26.13
2023-02-15T21:20:47.824Z,18.67
2023-02-15T21:25:50.645Z,19.10
2023-02-15T21:30:54.011Z,20.93
2023-02-15T21:35:58.153Z,30.13
2023-02-15T21:41:20.946Z,26.63
2023-02-15T21:46:42.129Z,18.03
2023-02-15T21:52:03.752Z,20.67
2023-02-15T21:57:09.169Z,21.77
2023-02-15T22:02:31.964Z,21.43
2023-02-15T22:07:34.887Z,28.20
2023-02-15T22:12:38.669Z,18.67
2023-02-15T22:17:41.463Z,19.97
2023-02-15T22:22:44.448Z,18.80
2023-02-15T22:27:48.390Z,17.80
2023-02-15T22:32:51.281Z,15.30
2023-02-15T22:37:54.367Z,16.87
2023-02-15T22:42:58.467Z,19.77
2023-02-15T22:48:01.574Z,23.00
2023-02-15T22:53:04.672Z,21.70
2023-02-15T22:58:07.750Z,18.23
2023-02-15T23:03:16.205Z,19.67
2023-02-15T23:08:19.238Z,16.20
2023-02-15T23:13:32.962Z,18.33
2023-02-15T23:18:39.064Z,17.77
2023-02-15T23:23:44.533Z,20.87
2023-02-15T23:28:47.600Z,18.73
2023-02-15T23:33:51.369Z,17.13
2023-02-15T23:38:59.129Z,18.70
2023-02-15T23:44:03.953Z,25.00
2023-02-15T23:49:14.905Z,15.63
2023-02-15T23:54:19.779Z,23.63
2023-02-15T23:59:25.613Z,23.07
